createdAt,value
2019-06-08T00:00:46.843Z,1.27
2019-06-08T00:01:51.066Z,0.82
2019-06-08T00:02:55.818Z,0.90
2019-06-08T00:04:00.011Z,0.82
2019-06-08T00:05:07.265Z,1.06
2019-06-08T00:06:12.634Z,1.20
2019-06-08T00:07:18.822Z,0.77
2019-06-08T00:08:23.102Z,1.20
2019-06-08T00:09:27.942Z,1.00
2019-06-08T00:10:32.369Z,1.10
2019-06-08T00:11:37.188Z,1.20
2019-06-08T00:12:41.373Z,1.12
2019-06-08T00:13:46.606Z,1.00
2019-06-08T00:14:50.867Z,1.32
2019-06-08T00:15:56.033Z,1.22
2019-06-08T00:17:00.220Z,1.10
2019-06-08T00:18:05.595Z,1.02
2019-06-08T00:19:09.775Z,1.37
2019-06-08T00:20:15.432Z,1.10
2019-06-08T00:21:19.705Z,0.90
2019-06-08T00:22:24.820Z,1.62
2019-06-08T00:23:29.006Z,0.95
2019-06-08T00:24:33.859Z,1.10
2019-06-08T00:25:38.095Z,1.60
2019-06-08T00:26:42.863Z,1.00
2019-06-08T00:27:47.138Z,1.00
2019-06-08T00:28:51.902Z,0.82
2019-06-08T00:29:56.090Z,0.82
2019-06-08T00:31:00.896Z,1.00
2019-06-08T00:32:05.079Z,0.93
2019-06-08T00:33:09.850Z,0.90
2019-06-08T00:34:14.514Z,0.90
2019-06-08T00:35:20.666Z,0.80
2019-06-08T00:36:25.134Z,1.02
2019-06-08T00:37:29.906Z,1.00
2019-06-08T00:38:34.350Z,1.12
2019-06-08T00:39:39.383Z,1.00
2019-06-08T00:40:44.211Z,1.20
2019-06-08T00:41:49.009Z,0.95
2019-06-08T00:42:53.311Z,1.10
2019-06-08T00:43:58.030Z,0.90
2019-06-08T00:45:02.483Z,1.02
2019-06-08T00:46:07.289Z,0.90
2019-06-08T00:47:11.449Z,1.13
2019-06-08T00:48:16.717Z,1.20
2019-06-08T00:49:20.954Z,1.00
2019-06-08T00:50:25.721Z,0.90
2019-06-08T00:51:30.006Z,0.98
2019-06-08T00:52:34.848Z,0.80
2019-06-08T00:53:39.106Z,0.90
2019-06-08T00:54:43.922Z,0.95
2019-06-08T00:55:48.064Z,0.93
2019-06-08T00:56:52.973Z,0.62
2019-06-08T00:57:57.143Z,0.95
2019-06-08T00:59:02.105Z,1.00
2019-06-08T01:00:10.627Z,0.70
2019-06-08T01:01:13.257Z,1.00
2019-06-08T01:02:18.243Z,0.67
2019-06-08T01:03:23.821Z,0.98
2019-06-08T01:04:29.145Z,0.80
2019-06-08T01:05:33.985Z,0.95
2019-06-08T01:06:38.202Z,0.80
2019-06-08T01:07:42.962Z,1.12
2019-06-08T01:08:47.353Z,0.80
2019-06-08T01:09:52.122Z,1.07
2019-06-08T01:10:56.383Z,1.10
2019-06-08T01:12:01.462Z,0.85
2019-06-08T01:13:05.725Z,0.82
2019-06-08T01:14:10.525Z,0.80
2019-06-08T01:15:16.402Z,0.90
2019-06-08T01:16:21.202Z,0.75
2019-06-08T01:17:25.382Z,0.70
2019-06-08T01:18:30.291Z,0.95
2019-06-08T01:19:34.505Z,1.00
2019-06-08T01:20:39.349Z,0.90
2019-06-08T01:21:43.477Z,1.03
2019-06-08T01:22:48.382Z,0.80
2019-06-08T01:23:52.566Z,0.80
2019-06-08T01:24:58.414Z,0.60
2019-06-08T01:26:03.174Z,0.70
2019-06-08T01:27:07.997Z,0.90
2019-06-08T01:28:12.854Z,1.37
2019-06-08T01:29:17.699Z,0.60
2019-06-08T01:30:22.254Z,0.60
2019-06-08T01:31:28.369Z,0.72
2019-06-08T01:32:32.577Z,1.00
2019-06-08T01:33:37.368Z,0.93
2019-06-08T01:34:41.563Z,0.98
2019-06-08T01:35:46.330Z,1.00
2019-06-08T01:36:50.587Z,1.00
2019-06-08T01:37:55.498Z,0.90
2019-06-08T01:38:59.694Z,0.70
2019-06-08T01:40:08.291Z,1.10
2019-06-08T01:41:12.472Z,0.83
2019-06-08T01:42:17.242Z,0.90
2019-06-08T01:43:21.844Z,0.90
2019-06-08T01:44:27.950Z,0.80
2019-06-08T01:45:33.169Z,0.88
2019-06-08T01:46:38.186Z,0.72
2019-06-08T01:47:42.371Z,0.75
2019-06-08T01:48:47.142Z,0.98
2019-06-08T01:49:51.359Z,0.98
2019-06-08T01:50:56.151Z,0.80
2019-06-08T01:52:00.421Z,0.75
2019-06-08T01:53:05.171Z,0.82
2019-06-08T01:54:09.348Z,1.00
2019-06-08T01:55:14.144Z,0.77
2019-06-08T01:56:18.357Z,0.70
2019-06-08T01:57:23.181Z,0.70
2019-06-08T01:58:27.452Z,0.57
2019-06-08T01:59:34.550Z,1.00
2019-06-08T02:00:41.486Z,0.90
2019-06-08T02:01:44.684Z,0.68
2019-06-08T02:02:48.870Z,0.70
2019-06-08T02:03:53.638Z,0.90
2019-06-08T02:04:57.822Z,0.93
2019-06-08T02:06:02.775Z,0.70
2019-06-08T02:07:07.010Z,0.90
2019-06-08T02:08:11.775Z,1.10
2019-06-08T02:09:15.963Z,1.20
2019-06-08T02:10:20.727Z,1.00
2019-06-08T02:11:24.984Z,0.70
2019-06-08T02:12:31.072Z,0.90
2019-06-08T02:13:35.400Z,0.70
2019-06-08T02:14:40.167Z,0.88
2019-06-08T02:15:44.464Z,0.98
2019-06-08T02:16:49.248Z,0.85
2019-06-08T02:17:53.420Z,1.00
2019-06-08T02:18:58.203Z,0.93
2019-06-08T02:20:02.421Z,0.80
2019-06-08T02:21:07.201Z,0.80
2019-06-08T02:22:11.482Z,1.10
2019-06-08T02:23:16.250Z,0.83
2019-06-08T02:24:20.435Z,0.90
2019-06-08T02:25:29.376Z,1.60
2019-06-08T02:26:35.146Z,1.12
2019-06-08T02:27:40.758Z,1.35
2019-06-08T02:28:44.946Z,0.93
2019-06-08T02:29:49.747Z,1.20
2019-06-08T02:30:53.935Z,1.00
2019-06-08T02:31:58.786Z,0.93
2019-06-08T02:33:02.972Z,1.17
2019-06-08T02:34:07.811Z,1.00
2019-06-08T02:35:12.017Z,1.27
2019-06-08T02:36:16.808Z,0.83
2019-06-08T02:37:20.991Z,0.90
2019-06-08T02:38:27.472Z,0.72
2019-06-08T02:39:32.742Z,1.00
2019-06-08T02:40:37.662Z,1.17
2019-06-08T02:41:41.829Z,1.02
2019-06-08T02:42:46.632Z,1.00
2019-06-08T02:43:50.810Z,1.10
2019-06-08T02:44:55.588Z,1.20
2019-06-08T02:45:59.811Z,1.00
2019-06-08T02:47:05.480Z,1.34
2019-06-08T02:48:09.728Z,1.25
2019-06-08T02:49:14.519Z,1.00
2019-06-08T02:50:22.082Z,1.30
2019-06-08T02:51:28.639Z,0.90
2019-06-08T02:52:34.224Z,1.10
2019-06-08T02:53:41.395Z,1.12
2019-06-08T02:54:45.790Z,1.45
2019-06-08T02:55:50.805Z,0.98
2019-06-08T02:56:55.067Z,1.25
2019-06-08T02:58:00.136Z,1.50
2019-06-08T02:59:04.640Z,1.30
2019-06-08T03:00:15.649Z,0.90
2019-06-08T03:01:20.145Z,1.20
2019-06-08T03:02:29.621Z,1.00
2019-06-08T03:03:35.745Z,1.10
2019-06-08T03:04:41.284Z,1.30
2019-06-08T03:05:45.554Z,1.22
2019-06-08T03:06:50.325Z,1.55
2019-06-08T03:07:55.070Z,1.47
2019-06-08T03:08:59.960Z,1.22
2019-06-08T03:10:06.045Z,1.08
2019-06-08T03:11:10.980Z,1.30
2019-06-08T03:12:15.168Z,1.50
2019-06-08T03:13:19.944Z,1.23
2019-06-08T03:14:28.802Z,1.05
2019-06-08T03:15:35.068Z,1.25
2019-06-08T03:16:41.555Z,1.50
2019-06-08T03:17:45.928Z,1.32
2019-06-08T03:18:50.126Z,1.45
2019-06-08T03:19:54.940Z,1.20
2019-06-08T03:21:00.153Z,1.10
2019-06-08T03:22:04.921Z,1.10
2019-06-08T03:23:09.103Z,1.37
2019-06-08T03:24:13.880Z,1.33
2019-06-08T03:25:18.256Z,1.30
2019-06-08T03:26:23.190Z,1.17
2019-06-08T03:27:27.370Z,1.35
2019-06-08T03:28:32.660Z,1.20
2019-06-08T03:29:38.986Z,1.37
2019-06-08T03:30:52.971Z,1.60
2019-06-08T03:31:55.744Z,1.47
2019-06-08T03:32:57.337Z,1.35
2019-06-08T03:34:01.818Z,1.40
2019-06-08T03:35:07.493Z,1.15
2019-06-08T03:36:11.708Z,1.90
2019-06-08T03:37:16.588Z,1.33
2019-06-08T03:38:21.478Z,1.20
2019-06-08T03:39:26.251Z,1.37
2019-06-08T03:40:30.771Z,1.30
2019-06-08T03:41:36.257Z,1.70
2019-06-08T03:42:40.843Z,1.80
2019-06-08T03:43:45.683Z,1.30
2019-06-08T03:44:49.869Z,1.87
2019-06-08T03:45:54.636Z,1.20
2019-06-08T03:46:58.825Z,1.30
2019-06-08T03:48:03.687Z,1.70
2019-06-08T03:49:09.004Z,1.30
2019-06-08T03:50:13.828Z,1.53
2019-06-08T03:51:18.101Z,1.43
2019-06-08T03:52:22.958Z,1.60
2019-06-08T03:53:27.245Z,1.67
2019-06-08T03:54:32.079Z,1.20
2019-06-08T03:55:37.998Z,1.45
2019-06-08T03:56:44.168Z,1.30
2019-06-08T03:57:48.395Z,1.32
2019-06-08T03:58:54.295Z,1.75
2019-06-08T03:59:58.542Z,1.47
2019-06-08T04:01:03.311Z,1.45
2019-06-08T04:02:07.564Z,2.10
2019-06-08T04:03:13.597Z,1.80
2019-06-08T04:04:17.929Z,1.40
2019-06-08T04:05:22.673Z,1.70
2019-06-08T04:06:26.860Z,2.08
2019-06-08T04:07:32.973Z,1.40
2019-06-08T04:08:37.975Z,1.87
2019-06-08T04:09:43.974Z,1.70
2019-06-08T04:10:50.442Z,1.72
2019-06-08T04:11:55.322Z,1.70
2019-06-08T04:12:59.798Z,1.52
2019-06-08T04:14:04.781Z,1.75
2019-06-08T04:15:09.047Z,1.47
2019-06-08T04:16:13.851Z,1.50
2019-06-08T04:17:18.105Z,1.43
2019-06-08T04:18:22.953Z,1.40
2019-06-08T04:19:27.552Z,1.55
2019-06-08T04:20:32.673Z,2.10
2019-06-08T04:21:37.869Z,1.15
2019-06-08T04:22:47.080Z,1.40
2019-06-08T04:23:51.742Z,1.98
2019-06-08T04:24:57.494Z,1.90
2019-06-08T04:26:04.227Z,1.56
2019-06-08T04:27:09.014Z,1.50
2019-06-08T04:28:13.337Z,1.57
2019-06-08T04:29:18.103Z,2.20
2019-06-08T04:30:22.548Z,1.60
2019-06-08T04:31:27.381Z,1.40
2019-06-08T04:32:31.896Z,1.85
2019-06-08T04:33:37.799Z,1.70
2019-06-08T04:34:42.924Z,1.55
2019-06-08T04:35:47.987Z,1.50
2019-06-08T04:36:53.447Z,1.92
2019-06-08T04:37:58.320Z,1.62
2019-06-08T04:39:02.583Z,1.35
2019-06-08T04:40:08.200Z,1.45
2019-06-08T04:41:12.382Z,2.00
2019-06-08T04:42:17.210Z,1.43
2019-06-08T04:43:21.395Z,1.60
2019-06-08T04:44:26.189Z,1.95
2019-06-08T04:45:30.551Z,1.40
2019-06-08T04:46:36.382Z,1.72
2019-06-08T04:47:41.499Z,1.75
2019-06-08T04:48:47.897Z,1.20
2019-06-08T04:49:54.105Z,1.67
2019-06-08T04:50:58.901Z,1.72
2019-06-08T04:52:03.266Z,1.40
2019-06-08T04:53:08.151Z,1.40
2019-06-08T04:54:14.578Z,1.77
2019-06-08T04:55:18.878Z,1.90
2019-06-08T04:56:24.219Z,1.77
2019-06-08T04:57:30.427Z,1.40
2019-06-08T04:58:34.572Z,1.30
2019-06-08T04:59:41.156Z,1.50
2019-06-08T05:00:46.278Z,1.73
2019-06-08T05:01:52.182Z,1.30
2019-06-08T05:02:56.358Z,1.72
2019-06-08T05:04:01.187Z,1.85
2019-06-08T05:05:07.074Z,1.42
2019-06-08T05:06:11.864Z,1.70
2019-06-08T05:07:16.165Z,1.93
2019-06-08T05:08:20.930Z,1.30
2019-06-08T05:09:25.178Z,1.20
2019-06-08T05:10:30.144Z,1.57
2019-06-08T05:11:36.409Z,1.65
2019-06-08T05:12:41.358Z,1.52
2019-06-08T05:13:47.515Z,1.20
2019-06-08T05:14:52.663Z,1.85
2019-06-08T05:15:56.972Z,1.32
2019-06-08T05:17:01.742Z,1.02
2019-06-08T05:18:06.225Z,1.62
2019-06-08T05:19:10.981Z,0.97
2019-06-08T05:20:15.182Z,1.33
2019-06-08T05:21:20.164Z,1.40
2019-06-08T05:22:24.675Z,1.40
2019-06-08T05:23:29.518Z,1.30
2019-06-08T05:24:33.704Z,1.57
2019-06-08T05:25:39.077Z,1.45
2019-06-08T05:26:43.650Z,1.77
2019-06-08T05:27:49.543Z,1.30
2019-06-08T05:28:53.981Z,1.65
2019-06-08T05:29:59.746Z,1.77
2019-06-08T05:31:04.684Z,1.46
2019-06-08T05:32:09.611Z,1.30
2019-06-08T05:33:13.794Z,1.30
2019-06-08T05:34:18.567Z,1.33
2019-06-08T05:35:22.751Z,1.37
2019-06-08T05:36:27.542Z,1.30
2019-06-08T05:37:31.959Z,1.47
2019-06-08T05:38:36.966Z,1.60
2019-06-08T05:39:41.457Z,1.50
2019-06-08T05:40:46.286Z,1.35
2019-06-08T05:41:50.616Z,1.75
2019-06-08T05:42:55.389Z,1.98
2019-06-08T05:43:59.604Z,1.30
2019-06-08T05:45:08.462Z,1.60
2019-06-08T05:46:12.646Z,1.63
2019-06-08T05:47:17.507Z,1.87
2019-06-08T05:48:21.709Z,1.60
2019-06-08T05:49:26.507Z,1.70
2019-06-08T05:50:30.786Z,1.30
2019-06-08T05:51:35.558Z,1.50
2019-06-08T05:52:39.933Z,1.57
2019-06-08T05:53:45.853Z,1.30
2019-06-08T05:54:50.263Z,1.80
2019-06-08T05:55:56.199Z,1.30
2019-06-08T05:57:00.475Z,1.52
2019-06-08T05:58:05.523Z,1.35
2019-06-08T05:59:09.726Z,2.17
2019-06-08T06:00:14.604Z,1.57
2019-06-08T06:01:18.913Z,1.93
2019-06-08T06:02:23.697Z,1.87
2019-06-08T06:03:27.883Z,1.67
2019-06-08T06:04:32.657Z,1.60
2019-06-08T06:05:36.910Z,1.80
2019-06-08T06:06:42.415Z,1.42
2019-06-08T06:07:46.780Z,1.92
2019-06-08T06:08:51.671Z,1.82
2019-06-08T06:09:55.861Z,1.40
2019-06-08T06:11:01.783Z,1.70
2019-06-08T06:12:05.967Z,1.60
2019-06-08T06:13:10.891Z,2.03
2019-06-08T06:14:15.165Z,1.53
2019-06-08T06:15:19.935Z,1.37
2019-06-08T06:16:25.423Z,1.50
2019-06-08T06:17:30.214Z,2.12
2019-06-08T06:18:34.401Z,1.82
2019-06-08T06:19:39.201Z,1.62
2019-06-08T06:20:45.266Z,1.80
2019-06-08T06:21:51.573Z,1.60
2019-06-08T06:22:58.591Z,1.95
2019-06-08T06:24:03.862Z,1.50
2019-06-08T06:25:08.807Z,1.40
2019-06-08T06:26:13.613Z,1.77
2019-06-08T06:27:17.795Z,1.67
2019-06-08T06:28:22.591Z,1.57
2019-06-08T06:29:26.799Z,1.77
2019-06-08T06:30:31.646Z,1.70
2019-06-08T06:31:35.821Z,1.20
2019-06-08T06:32:41.747Z,1.90
2019-06-08T06:33:47.854Z,1.80
2019-06-08T06:34:52.823Z,1.85
2019-06-08T06:35:58.027Z,1.57
2019-06-08T06:37:02.794Z,1.52
2019-06-08T06:38:07.032Z,1.72
2019-06-08T06:39:11.878Z,1.60
2019-06-08T06:40:16.170Z,1.93
2019-06-08T06:41:20.937Z,1.80
2019-06-08T06:42:25.964Z,1.50
2019-06-08T06:43:30.735Z,1.70
2019-06-08T06:44:35.095Z,1.63
2019-06-08T06:45:39.859Z,1.77
2019-06-08T06:46:44.067Z,1.75
2019-06-08T06:47:50.347Z,1.67
2019-06-08T06:48:55.156Z,2.05
2019-06-08T06:49:59.994Z,1.95
2019-06-08T06:51:05.231Z,1.65
2019-06-08T06:52:10.079Z,2.20
2019-06-08T06:53:14.271Z,1.77
2019-06-08T06:54:19.045Z,1.70
2019-06-08T06:55:25.380Z,1.50
2019-06-08T06:56:29.791Z,2.00
2019-06-08T06:57:36.475Z,1.52
2019-06-08T06:58:41.517Z,2.05
2019-06-08T06:59:45.758Z,1.85
2019-06-08T07:00:51.566Z,1.35
2019-06-08T07:01:57.672Z,2.00
2019-06-08T07:03:02.559Z,1.65
2019-06-08T07:04:06.914Z,2.05
2019-06-08T07:05:11.770Z,1.83
2019-06-08T07:06:16.027Z,1.63
2019-06-08T07:07:20.817Z,2.20
2019-06-08T07:08:26.127Z,1.75
2019-06-08T07:09:31.107Z,1.70
2019-06-08T07:10:35.366Z,1.80
2019-06-08T07:11:40.280Z,1.77
2019-06-08T07:12:46.517Z,2.05
2019-06-08T07:13:51.312Z,2.00
2019-06-08T07:14:55.603Z,1.65
2019-06-08T07:16:17.170Z,1.90
2019-06-08T07:17:09.046Z,1.70
2019-06-08T07:18:13.925Z,1.70
2019-06-08T07:19:18.357Z,1.37
2019-06-08T07:20:23.221Z,1.70
2019-06-08T07:21:40.867Z,1.80
2019-06-08T07:22:33.991Z,1.70
2019-06-08T07:23:38.316Z,1.62
2019-06-08T07:24:43.086Z,1.75
2019-06-08T07:25:48.410Z,1.95
2019-06-08T07:26:54.462Z,1.82
2019-06-08T07:27:59.794Z,1.70
2019-06-08T07:29:05.691Z,1.72
2019-06-08T07:30:10.306Z,2.00
2019-06-08T07:31:15.078Z,2.10
2019-06-08T07:32:19.355Z,1.43
2019-06-08T07:33:24.177Z,1.50
2019-06-08T07:34:28.435Z,1.90
2019-06-08T07:35:33.920Z,1.85
2019-06-08T07:36:38.176Z,1.65
2019-06-08T07:37:42.968Z,1.75
2019-06-08T07:38:48.676Z,1.62
2019-06-08T07:39:53.766Z,1.40
2019-06-08T07:40:59.994Z,1.90
2019-06-08T07:42:05.274Z,1.50
2019-06-08T07:43:09.631Z,1.60
2019-06-08T07:44:14.504Z,1.73
2019-06-08T07:45:18.720Z,1.50
2019-06-08T07:46:23.656Z,1.47
2019-06-08T07:47:27.841Z,1.65
2019-06-08T07:48:33.702Z,1.75
2019-06-08T07:49:38.183Z,1.50
2019-06-08T07:50:42.988Z,1.45
2019-06-08T07:51:58.681Z,1.62
2019-06-08T07:52:54.647Z,1.60
2019-06-08T07:53:59.900Z,1.65
2019-06-08T07:55:06.834Z,1.56
2019-06-08T07:56:11.022Z,1.70
2019-06-08T07:57:15.820Z,1.60
2019-06-08T07:58:20.032Z,1.70
2019-06-08T07:59:24.875Z,1.67
2019-06-08T08:00:29.202Z,1.47
2019-06-08T08:01:36.479Z,1.70
2019-06-08T08:02:40.350Z,1.60
2019-06-08T08:03:45.113Z,1.85
2019-06-08T08:04:50.509Z,1.70
2019-06-08T08:05:56.727Z,1.90
2019-06-08T08:07:01.140Z,1.95
2019-06-08T08:08:06.045Z,2.35
2019-06-08T08:09:10.242Z,1.83
2019-06-08T08:10:15.124Z,1.53
2019-06-08T08:11:19.428Z,1.47
2019-06-08T08:12:24.250Z,1.37
2019-06-08T08:13:28.582Z,1.55
2019-06-08T08:14:34.400Z,1.65
2019-06-08T08:15:38.722Z,1.70
2019-06-08T08:16:43.592Z,1.50
2019-06-08T08:17:49.058Z,1.40
2019-06-08T08:18:53.987Z,1.80
2019-06-08T08:19:59.406Z,1.40
2019-06-08T08:21:14.319Z,2.08
2019-06-08T08:22:22.334Z,1.57
2019-06-08T08:23:17.378Z,1.62
2019-06-08T08:24:23.259Z,1.80
2019-06-08T08:25:28.245Z,2.15
2019-06-08T08:26:34.446Z,2.20
2019-06-08T08:27:39.156Z,1.50
2019-06-08T08:28:43.511Z,1.62
2019-06-08T08:29:48.976Z,1.70
2019-06-08T08:30:55.416Z,2.00
2019-06-08T08:32:01.994Z,1.55
2019-06-08T08:33:07.789Z,1.70
2019-06-08T08:34:12.799Z,1.83
2019-06-08T08:35:18.573Z,1.63
2019-06-08T08:36:23.401Z,1.67
2019-06-08T08:37:28.156Z,1.98
2019-06-08T08:38:32.958Z,1.70
2019-06-08T08:39:37.629Z,1.27
2019-06-08T08:40:43.723Z,1.87
2019-06-08T08:41:53.716Z,1.35
2019-06-08T08:42:55.709Z,1.30
2019-06-08T08:44:04.293Z,1.55
2019-06-08T08:45:08.667Z,1.60
2019-06-08T08:46:13.384Z,1.70
2019-06-08T08:47:18.668Z,1.97
2019-06-08T08:48:28.163Z,1.70
2019-06-08T08:49:29.530Z,1.17
2019-06-08T08:50:33.715Z,1.37
2019-06-08T08:51:38.879Z,1.62
2019-06-08T08:52:43.077Z,1.37
2019-06-08T08:53:48.144Z,1.40
2019-06-08T08:54:54.312Z,1.30
2019-06-08T08:56:01.276Z,1.57
2019-06-08T08:57:07.714Z,1.82
2019-06-08T08:58:13.161Z,2.53
2019-06-08T08:59:17.850Z,1.57
2019-06-08T09:00:22.954Z,1.40
2019-06-08T09:01:28.916Z,2.15
2019-06-08T09:02:34.003Z,1.52
2019-06-08T09:03:39.600Z,1.20
2019-06-08T09:04:44.791Z,1.10
2019-06-08T09:05:49.001Z,1.20
2019-06-08T09:06:55.345Z,1.30
2019-06-08T09:08:02.086Z,1.55
2019-06-08T09:09:08.922Z,1.98
2019-06-08T09:10:13.362Z,1.97
2019-06-08T09:11:18.157Z,2.80
2019-06-08T09:12:22.375Z,1.50
2019-06-08T09:13:28.102Z,1.50
2019-06-08T09:14:33.574Z,1.45
2019-06-08T09:15:38.423Z,1.47
2019-06-08T09:16:43.111Z,1.80
2019-06-08T09:17:48.374Z,1.45
2019-06-08T09:18:53.748Z,1.30
2019-06-08T09:20:00.339Z,1.45
2019-06-08T09:21:08.162Z,1.20
2019-06-08T09:22:12.095Z,1.63
2019-06-08T09:23:21.609Z,1.50
2019-06-08T09:24:24.035Z,1.63
2019-06-08T09:25:28.282Z,1.70
2019-06-08T09:26:34.704Z,1.30
2019-06-08T09:27:39.028Z,1.20
2019-06-08T09:28:43.842Z,1.15
2019-06-08T09:29:48.330Z,1.47
2019-06-08T09:30:54.152Z,1.20
2019-06-08T09:32:00.734Z,1.65
2019-06-08T09:33:07.809Z,1.74
2019-06-08T09:34:15.193Z,1.30
2019-06-08T09:35:18.633Z,1.60
2019-06-08T09:36:23.813Z,1.55
2019-06-08T09:37:28.926Z,2.80
2019-06-08T09:38:33.144Z,2.10
2019-06-08T09:39:38.509Z,1.37
2019-06-08T09:40:43.073Z,1.30
2019-06-08T09:41:48.077Z,1.62
2019-06-08T09:42:55.875Z,1.60
2019-06-08T09:44:02.367Z,1.67
2019-06-08T09:45:09.331Z,1.20
2019-06-08T09:46:14.181Z,1.17
2019-06-08T09:47:18.603Z,1.50
2019-06-08T09:48:23.401Z,1.50
2019-06-08T09:49:28.086Z,1.67
2019-06-08T09:50:32.858Z,1.10
2019-06-08T09:51:37.887Z,1.40
2019-06-08T09:52:42.754Z,1.07
2019-06-08T09:53:47.625Z,1.37
2019-06-08T09:54:54.175Z,1.30
2019-06-08T09:56:02.431Z,1.25
2019-06-08T09:57:06.621Z,1.52
2019-06-08T09:58:11.981Z,1.55
2019-06-08T09:59:18.834Z,1.50
2019-06-08T10:00:26.332Z,1.37
2019-06-08T10:01:30.197Z,1.35
2019-06-08T10:02:34.389Z,1.50
2019-06-08T10:03:39.414Z,1.40
2019-06-08T10:04:43.644Z,1.17
2019-06-08T10:05:48.567Z,1.62
2019-06-08T10:06:54.227Z,1.60
2019-06-08T10:08:00.885Z,1.32
2019-06-08T10:09:09.019Z,1.45
2019-06-08T10:10:13.627Z,1.40
2019-06-08T10:11:17.907Z,1.57
2019-06-08T10:12:22.675Z,1.40
2019-06-08T10:13:28.061Z,1.67
2019-06-08T10:14:33.682Z,1.30
2019-06-08T10:15:38.739Z,1.42
2019-06-08T10:16:43.679Z,1.37
2019-06-08T10:17:47.993Z,1.02
2019-06-08T10:18:52.762Z,1.17
2019-06-08T10:19:59.401Z,1.20
2019-06-08T10:21:06.019Z,1.30
2019-06-08T10:22:09.447Z,1.27
2019-06-08T10:23:30.317Z,1.23
2019-06-08T10:24:20.097Z,1.27
2019-06-08T10:25:24.971Z,1.40
2019-06-08T10:26:29.270Z,1.42
2019-06-08T10:27:34.125Z,1.17
2019-06-08T10:28:39.038Z,1.40
2019-06-08T10:29:44.888Z,1.10
2019-06-08T10:30:49.158Z,1.55
2019-06-08T10:31:55.106Z,1.20
2019-06-08T10:33:01.827Z,1.20
2019-06-08T10:34:11.002Z,1.20
2019-06-08T10:35:14.353Z,1.40
2019-06-08T10:36:19.184Z,1.20
2019-06-08T10:37:23.458Z,1.22
2019-06-08T10:38:28.938Z,1.22
2019-06-08T10:39:33.399Z,1.17
2019-06-08T10:40:39.319Z,1.02
2019-06-08T10:41:43.492Z,1.17
2019-06-08T10:42:48.429Z,1.22
2019-06-08T10:43:53.624Z,1.30
2019-06-08T10:45:02.818Z,1.25
2019-06-08T10:46:10.268Z,1.70
2019-06-08T10:47:12.088Z,1.40
2019-06-08T10:48:17.922Z,1.10
2019-06-08T10:49:22.832Z,1.43
2019-06-08T10:50:28.788Z,1.05
2019-06-08T10:51:33.675Z,1.40
2019-06-08T10:52:39.130Z,1.10
2019-06-08T10:53:49.343Z,1.57
2019-06-08T10:54:50.412Z,1.15
2019-06-08T10:55:57.850Z,1.45
2019-06-08T10:57:05.007Z,1.20
2019-06-08T10:58:10.899Z,1.22
2019-06-08T10:59:14.273Z,1.30
2019-06-08T11:00:23.992Z,1.20
2019-06-08T11:01:28.800Z,1.50
2019-06-08T11:02:33.674Z,1.15
2019-06-08T11:03:38.842Z,1.50
2019-06-08T11:04:43.870Z,1.20
2019-06-08T11:05:48.315Z,1.07
2019-06-08T11:06:54.828Z,1.00
2019-06-08T11:08:00.665Z,1.15
2019-06-08T11:09:12.292Z,1.47
2019-06-08T11:10:12.906Z,1.10
2019-06-08T11:11:20.196Z,1.57
2019-06-08T11:12:28.126Z,1.56
2019-06-08T11:13:32.313Z,1.30
2019-06-08T11:14:38.169Z,1.27
2019-06-08T11:15:42.977Z,1.00
2019-06-08T11:16:47.569Z,1.40
2019-06-08T11:17:53.577Z,1.00
2019-06-08T11:18:59.076Z,1.45
2019-06-08T11:20:11.155Z,0.90
2019-06-08T11:21:13.070Z,1.30
2019-06-08T11:22:18.971Z,1.43
2019-06-08T11:23:23.156Z,1.00
2019-06-08T11:24:28.948Z,1.22
2019-06-08T11:25:34.324Z,1.30
2019-06-08T11:26:40.334Z,1.35
2019-06-08T11:27:44.672Z,1.25
2019-06-08T11:28:51.222Z,1.62
2019-06-08T11:29:57.451Z,1.50
2019-06-08T11:31:01.966Z,1.60
2019-06-08T11:32:09.318Z,1.20
2019-06-08T11:33:12.642Z,1.30
2019-06-08T11:34:18.691Z,0.80
2019-06-08T11:35:23.318Z,1.10
2019-06-08T11:36:28.166Z,0.85
2019-06-08T11:37:33.093Z,1.20
2019-06-08T11:38:38.231Z,1.02
2019-06-08T11:39:43.049Z,1.27
2019-06-08T11:40:47.831Z,1.27
2019-06-08T11:41:52.670Z,1.02
2019-06-08T11:42:58.618Z,0.90
2019-06-08T11:44:03.821Z,1.40
2019-06-08T11:45:12.735Z,1.00
2019-06-08T11:46:20.627Z,0.90
2019-06-08T11:47:21.952Z,1.07
2019-06-08T11:48:28.520Z,1.15
2019-06-08T11:49:32.831Z,1.00
2019-06-08T11:50:42.363Z,1.15
2019-06-08T11:51:47.832Z,1.02
2019-06-08T11:52:52.724Z,1.30
2019-06-08T11:53:59.268Z,1.00
2019-06-08T11:55:05.363Z,1.20
2019-06-08T11:56:11.740Z,1.20
2019-06-08T11:57:17.695Z,1.30
2019-06-08T11:58:23.231Z,1.30
2019-06-08T11:59:28.559Z,1.22
2019-06-08T12:00:55.658Z,1.20
2019-06-08T12:02:01.912Z,1.55
2019-06-08T12:03:08.832Z,0.90
2019-06-08T12:04:13.564Z,1.10
2019-06-08T12:05:18.161Z,2.00
2019-06-08T12:06:23.685Z,1.17
2019-06-08T12:07:30.294Z,1.27
2019-06-08T12:08:34.475Z,1.20
2019-06-08T12:09:38.664Z,1.20
2019-06-08T12:10:43.527Z,1.30
2019-06-08T12:11:48.104Z,1.10
2019-06-08T12:12:52.968Z,1.20
2019-06-08T12:13:58.492Z,1.20
2019-06-08T12:15:03.364Z,1.30
2019-06-08T12:16:15.028Z,1.20
2019-06-08T12:17:19.196Z,1.60
2019-06-08T12:18:21.258Z,1.10
2019-06-08T12:19:28.391Z,0.93
2019-06-08T12:20:31.914Z,1.62
2019-06-08T12:21:36.690Z,1.60
2019-06-08T12:22:40.894Z,1.32
2019-06-08T12:23:45.658Z,1.20
2019-06-08T12:24:49.838Z,1.50
2019-06-08T12:25:55.354Z,1.37
2019-06-08T12:27:09.357Z,1.40
2019-06-08T12:28:06.443Z,1.30
2019-06-08T12:29:13.051Z,1.10
2019-06-08T12:30:24.931Z,1.17
2019-06-08T12:31:23.070Z,1.30
2019-06-08T12:32:27.923Z,1.35
2019-06-08T12:33:32.186Z,0.80
2019-06-08T12:34:38.377Z,1.17
2019-06-08T12:35:42.928Z,1.30
2019-06-08T12:36:48.199Z,1.07
2019-06-08T12:37:52.371Z,1.42
2019-06-08T12:38:58.611Z,1.10
2019-06-08T12:40:02.850Z,1.22
2019-06-08T12:41:09.586Z,1.77
2019-06-08T12:42:18.758Z,1.30
2019-06-08T12:43:20.391Z,1.13
2019-06-08T12:44:28.455Z,1.20
2019-06-08T12:45:31.166Z,1.27
2019-06-08T12:46:38.353Z,1.30
2019-06-08T12:47:41.813Z,1.00
2019-06-08T12:48:45.995Z,1.37
2019-06-08T12:49:50.762Z,1.07
2019-06-08T12:50:54.965Z,1.30
2019-06-08T12:51:59.736Z,1.40
2019-06-08T12:53:11.244Z,1.12
2019-06-08T12:54:12.764Z,1.40
2019-06-08T12:55:22.290Z,1.20
2019-06-08T12:56:24.341Z,1.47
2019-06-08T12:57:28.706Z,1.20
2019-06-08T12:58:33.415Z,1.22
2019-06-08T12:59:38.441Z,1.32
2019-06-08T13:00:44.330Z,1.45
2019-06-08T13:01:48.535Z,1.47
2019-06-08T13:02:53.317Z,1.20
2019-06-08T13:03:58.074Z,1.20
2019-06-08T13:05:03.059Z,1.20
2019-06-08T13:06:09.155Z,1.40
2019-06-08T13:07:14.963Z,1.13
2019-06-08T13:08:21.483Z,1.10
2019-06-08T13:09:29.706Z,1.50
2019-06-08T13:10:31.650Z,1.20
2019-06-08T13:11:36.419Z,0.88
2019-06-08T13:12:40.988Z,1.40
2019-06-08T13:13:48.889Z,1.62
2019-06-08T13:14:52.734Z,1.45
2019-06-08T13:15:58.060Z,1.20
2019-06-08T13:17:02.278Z,1.47
2019-06-08T13:18:09.854Z,1.20
2019-06-08T13:19:14.378Z,1.20
2019-06-08T13:20:22.187Z,1.42
2019-06-08T13:21:34.483Z,1.27
2019-06-08T13:22:32.441Z,1.50
2019-06-08T13:23:38.337Z,1.52
2019-06-08T13:24:43.121Z,1.22
2019-06-08T13:25:48.080Z,1.35
2019-06-08T13:26:52.991Z,1.25
2019-06-08T13:27:58.372Z,1.32
2019-06-08T13:29:03.170Z,1.30
2019-06-08T13:30:07.619Z,1.52
2019-06-08T13:31:14.786Z,1.30
2019-06-08T13:32:20.667Z,1.37
2019-06-08T13:33:28.113Z,1.10
2019-06-08T13:34:32.232Z,0.93
2019-06-08T13:35:39.573Z,1.32
2019-06-08T13:36:42.883Z,0.93
2019-06-08T13:37:47.755Z,1.15
2019-06-08T13:38:51.938Z,1.15
2019-06-08T13:39:59.189Z,1.20
2019-06-08T13:41:02.654Z,1.32
2019-06-08T13:42:07.811Z,1.12
2019-06-08T13:43:13.281Z,1.47
2019-06-08T13:44:18.099Z,1.30
2019-06-08T13:45:23.502Z,1.23
2019-06-08T13:46:28.384Z,1.55
2019-06-08T13:47:32.542Z,1.50
2019-06-08T13:48:37.677Z,0.90
2019-06-08T13:49:41.862Z,1.17
2019-06-08T13:50:49.333Z,1.02
2019-06-08T13:51:52.597Z,1.20
2019-06-08T13:52:58.775Z,1.00
2019-06-08T13:54:03.214Z,1.40
2019-06-08T13:55:09.026Z,1.32
2019-06-08T13:56:13.215Z,1.10
2019-06-08T13:57:21.844Z,1.43
2019-06-08T13:58:29.783Z,1.50
2019-06-08T13:59:31.035Z,1.30
2019-06-08T14:00:38.487Z,1.35
2019-06-08T14:01:42.610Z,1.10
2019-06-08T14:02:48.338Z,1.37
2019-06-08T14:03:53.565Z,1.35
2019-06-08T14:04:59.146Z,1.37
2019-06-08T14:06:04.306Z,1.27
2019-06-08T14:07:08.639Z,1.20
2019-06-08T14:08:14.533Z,1.30
2019-06-08T14:09:19.327Z,1.20
2019-06-08T14:10:40.943Z,1.15
2019-06-08T14:11:47.573Z,1.30
2019-06-08T14:12:51.727Z,1.20
2019-06-08T14:14:00.816Z,1.27
2019-06-08T14:15:02.428Z,1.10
2019-06-08T14:16:11.149Z,1.67
2019-06-08T14:17:13.499Z,1.47
2019-06-08T14:18:23.001Z,1.00
2019-06-08T14:19:24.883Z,1.42
2019-06-08T14:20:34.437Z,1.20
2019-06-08T14:21:41.429Z,1.47
2019-06-08T14:22:42.611Z,1.40
2019-06-08T14:23:48.435Z,1.10
2019-06-08T14:24:53.056Z,1.20
2019-06-08T14:26:00.220Z,1.07
2019-06-08T14:27:04.997Z,1.77
2019-06-08T14:28:09.794Z,1.25